sensor_id;sensor_type;location;lat;lon;timestamp;P1;durP1;ratioP1;P2;durP2;ratioP2
12970;SDS011;6550;48.650;8.774;2024-03-02T00:02:18;2.07;;;1.60;;
12970;SDS011;6550;48.650;8.774;2024-03-02T00:04:47;4.87;;;2.50;;
12970;SDS011;6550;48.650;8.774;2024-03-02T00:07:16;1.93;;;1.80;;
12970;SDS011;6550;48.650;8.774;2024-03-02T00:09:46;4.03;;;1.90;;
12970;SDS011;6550;48.650;8.774;2024-03-02T00:12:15;2.80;;;1.73;;
12970;SDS011;6550;48.650;8.774;2024-03-02T00:14:42;2.97;;;2.00;;
12970;SDS011;6550;48.650;8.774;2024-03-02T00:17:16;2.23;;;2.00;;
12970;SDS011;6550;48.650;8.774;2024-03-02T00:19:50;2.50;;;2.10;;
12970;SDS011;6550;48.650;8.774;2024-03-02T00:22:22;2.53;;;2.20;;
12970;SDS011;6550;48.650;8.774;2024-03-02T00:24:49;2.13;;;1.93;;
12970;SDS011;6550;48.650;8.774;2024-03-02T00:27:16;3.30;;;1.90;;
12970;SDS011;6550;48.650;8.774;2024-03-02T00:29:46;1.83;;;1.67;;
12970;SDS011;6550;48.650;8.774;2024-03-02T00:32:13;2.40;;;1.83;;
12970;SDS011;6550;48.650;8.774;2024-03-02T00:34:42;3.00;;;2.10;;
12970;SDS011;6550;48.650;8.774;2024-03-02T00:37:08;2.20;;;2.00;;
12970;SDS011;6550;48.650;8.774;2024-03-02T00:39:40;2.60;;;2.00;;
12970;SDS011;6550;48.650;8.774;2024-03-02T00:42:07;2.47;;;2.07;;
12970;SDS011;6550;48.650;8.774;2024-03-02T00:44:34;2.77;;;1.87;;
12970;SDS011;6550;48.650;8.774;2024-03-02T00:47:02;2.17;;;1.97;;
12970;SDS011;6550;48.650;8.774;2024-03-02T00:49:30;14.87;;;2.20;;
12970;SDS011;6550;48.650;8.774;2024-03-02T00:51:56;2.53;;;2.23;;
12970;SDS011;6550;48.650;8.774;2024-03-02T00:54:26;2.30;;;1.87;;
12970;SDS011;6550;48.650;8.774;2024-03-02T00:56:55;5.30;;;2.10;;
12970;SDS011;6550;48.650;8.774;2024-03-02T00:59:25;2.47;;;2.23;;
12970;SDS011;6550;48.650;8.774;2024-03-02T01:01:52;2.00;;;1.90;;
12970;SDS011;6550;48.650;8.774;2024-03-02T01:04:21;2.23;;;2.03;;
12970;SDS011;6550;48.650;8.774;2024-03-02T01:06:50;2.40;;;2.10;;
12970;SDS011;6550;48.650;8.774;2024-03-02T01:09:17;2.20;;;2.00;;
12970;SDS011;6550;48.650;8.774;2024-03-02T01:11:46;2.20;;;2.00;;
12970;SDS011;6550;48.650;8.774;2024-03-02T01:14:13;2.43;;;2.20;;
12970;SDS011;6550;48.650;8.774;2024-03-02T01:16:40;2.73;;;1.90;;
12970;SDS011;6550;48.650;8.774;2024-03-02T01:19:06;1.93;;;1.73;;
12970;SDS011;6550;48.650;8.774;2024-03-02T01:21:33;2.40;;;2.20;;
12970;SDS011;6550;48.650;8.774;2024-03-02T01:24:02;2.30;;;2.10;;
12970;SDS011;6550;48.650;8.774;2024-03-02T01:26:30;2.53;;;1.93;;
12970;SDS011;6550;48.650;8.774;2024-03-02T01:28:57;3.30;;;2.20;;
12970;SDS011;6550;48.650;8.774;2024-03-02T01:31:24;3.17;;;2.00;;
12970;SDS011;6550;48.650;8.774;2024-03-02T01:33:51;2.50;;;2.30;;
12970;SDS011;6550;48.650;8.774;2024-03-02T01:36:18;3.42;;;1.80;;
12970;SDS011;6550;48.650;8.774;2024-03-02T01:38:47;2.70;;;2.10;;
12970;SDS011;6550;48.650;8.774;2024-03-02T01:41:16;2.57;;;2.00;;
12970;SDS011;6550;48.650;8.774;2024-03-02T01:43:45;2.43;;;2.23;;
12970;SDS011;6550;48.650;8.774;2024-03-02T01:46:12;2.20;;;2.00;;
12970;SDS011;6550;48.650;8.774;2024-03-02T01:48:41;2.23;;;2.03;;
12970;SDS011;6550;48.650;8.774;2024-03-02T01:51:07;3.27;;;2.00;;
12970;SDS011;6550;48.650;8.774;2024-03-02T01:53:37;1.90;;;1.73;;
12970;SDS011;6550;48.650;8.774;2024-03-02T01:56:06;2.10;;;1.90;;
12970;SDS011;6550;48.650;8.774;2024-03-02T01:58:33;2.37;;;1.90;;
12970;SDS011;6550;48.650;8.774;2024-03-02T02:01:00;1.83;;;1.73;;
12970;SDS011;6550;48.650;8.774;2024-03-02T02:03:27;3.10;;;2.00;;
12970;SDS011;6550;48.650;8.774;2024-03-02T02:05:54;3.80;;;2.10;;
12970;SDS011;6550;48.650;8.774;2024-03-02T02:08:21;2.40;;;2.20;;
12970;SDS011;6550;48.650;8.774;2024-03-02T02:10:50;2.27;;;2.07;;
12970;SDS011;6550;48.650;8.774;2024-03-02T02:13:16;2.30;;;2.00;;
12970;SDS011;6550;48.650;8.774;2024-03-02T02:15:43;2.40;;;2.20;;
12970;SDS011;6550;48.650;8.774;2024-03-02T02:18:13;2.20;;;2.00;;
12970;SDS011;6550;48.650;8.774;2024-03-02T02:20:39;2.40;;;2.20;;
12970;SDS011;6550;48.650;8.774;2024-03-02T02:23:06;2.10;;;1.90;;
12970;SDS011;6550;48.650;8.774;2024-03-02T02:25:36;2.37;;;2.17;;
12970;SDS011;6550;48.650;8.774;2024-03-02T02:28:05;2.93;;;2.53;;
12970;SDS011;6550;48.650;8.774;2024-03-02T02:30:32;2.58;;;2.38;;
12970;SDS011;6550;48.650;8.774;2024-03-02T02:33:01;2.50;;;2.30;;
12970;SDS011;6550;48.650;8.774;2024-03-02T02:35:31;2.20;;;2.00;;
12970;SDS011;6550;48.650;8.774;2024-03-02T02:38:00;5.23;;;2.40;;
12970;SDS011;6550;48.650;8.774;2024-03-02T02:40:28;2.80;;;2.37;;
12970;SDS011;6550;48.650;8.774;2024-03-02T02:42:58;2.57;;;2.00;;
12970;SDS011;6550;48.650;8.774;2024-03-02T02:45:27;2.50;;;2.03;;
12970;SDS011;6550;48.650;8.774;2024-03-02T02:47:54;2.90;;;1.97;;
12970;SDS011;6550;48.650;8.774;2024-03-02T02:50:21;2.10;;;1.90;;
12970;SDS011;6550;48.650;8.774;2024-03-02T02:52:50;2.90;;;2.30;;
12970;SDS011;6550;48.650;8.774;2024-03-02T02:55:17;2.33;;;2.13;;
12970;SDS011;6550;48.650;8.774;2024-03-02T02:57:44;2.43;;;2.03;;
12970;SDS011;6550;48.650;8.774;2024-03-02T03:00:13;2.30;;;2.10;;
12970;SDS011;6550;48.650;8.774;2024-03-02T03:02:44;2.00;;;1.90;;
12970;SDS011;6550;48.650;8.774;2024-03-02T03:05:14;2.20;;;2.00;;
12970;SDS011;6550;48.650;8.774;2024-03-02T03:07:41;2.07;;;1.90;;
12970;SDS011;6550;48.650;8.774;2024-03-02T03:10:10;5.57;;;2.17;;
12970;SDS011;6550;48.650;8.774;2024-03-02T03:12:41;2.17;;;1.97;;
12970;SDS011;6550;48.650;8.774;2024-03-02T03:15:09;2.47;;;2.27;;
12970;SDS011;6550;48.650;8.774;2024-03-02T03:17:39;2.30;;;2.10;;
12970;SDS011;6550;48.650;8.774;2024-03-02T03:20:09;2.20;;;2.00;;
12970;SDS011;6550;48.650;8.774;2024-03-02T03:22:37;2.60;;;2.40;;
12970;SDS011;6550;48.650;8.774;2024-03-02T03:25:04;2.20;;;2.00;;
12970;SDS011;6550;48.650;8.774;2024-03-02T03:27:36;2.33;;;2.10;;
12970;SDS011;6550;48.650;8.774;2024-03-02T03:30:04;2.80;;;2.30;;
12970;SDS011;6550;48.650;8.774;2024-03-02T03:32:32;2.40;;;2.20;;
12970;SDS011;6550;48.650;8.774;2024-03-02T03:35:01;2.20;;;2.00;;
12970;SDS011;6550;48.650;8.774;2024-03-02T03:37:28;2.30;;;2.10;;
12970;SDS011;6550;48.650;8.774;2024-03-02T03:40:00;2.50;;;2.27;;
12970;SDS011;6550;48.650;8.774;2024-03-02T03:42:27;1.83;;;1.73;;
12970;SDS011;6550;48.650;8.774;2024-03-02T03:44:54;2.43;;;2.23;;
12970;SDS011;6550;48.650;8.774;2024-03-02T03:47:20;2.40;;;2.20;;
12970;SDS011;6550;48.650;8.774;2024-03-02T03:49:47;2.87;;;2.10;;
12970;SDS011;6550;48.650;8.774;2024-03-02T03:52:14;2.20;;;2.00;;
12970;SDS011;6550;48.650;8.774;2024-03-02T03:54:43;2.80;;;2.50;;
12970;SDS011;6550;48.650;8.774;2024-03-02T03:57:12;2.50;;;2.30;;
12970;SDS011;6550;48.650;8.774;2024-03-02T03:59:38;3.53;;;2.53;;
12970;SDS011;6550;48.650;8.774;2024-03-02T04:02:05;2.20;;;2.03;;
12970;SDS011;6550;48.650;8.774;2024-03-02T04:04:33;2.10;;;1.90;;
12970;SDS011;6550;48.650;8.774;2024-03-02T04:07:00;2.60;;;2.40;;
12970;SDS011;6550;48.650;8.774;2024-03-02T04:09:26;2.40;;;2.20;;
12970;SDS011;6550;48.650;8.774;2024-03-02T04:11:53;2.17;;;1.97;;
12970;SDS011;6550;48.650;8.774;2024-03-02T04:14:22;2.80;;;2.53;;
12970;SDS011;6550;48.650;8.774;2024-03-02T04:16:49;3.07;;;2.30;;
12970;SDS011;6550;48.650;8.774;2024-03-02T04:19:16;7.53;;;2.83;;
12970;SDS011;6550;48.650;8.774;2024-03-02T04:21:43;2.40;;;2.20;;
12970;SDS011;6550;48.650;8.774;2024-03-02T04:24:12;2.23;;;2.00;;
12970;SDS011;6550;48.650;8.774;2024-03-02T04:26:41;2.30;;;2.10;;
12970;SDS011;6550;48.650;8.774;2024-03-02T04:29:10;2.30;;;2.10;;
12970;SDS011;6550;48.650;8.774;2024-03-02T04:31:36;2.40;;;2.20;;
12970;SDS011;6550;48.650;8.774;2024-03-02T04:34:03;2.30;;;2.10;;
12970;SDS011;6550;48.650;8.774;2024-03-02T04:36:31;6.73;;;2.10;;
12970;SDS011;6550;48.650;8.774;2024-03-02T04:39:00;2.50;;;2.10;;
12970;SDS011;6550;48.650;8.774;2024-03-02T04:41:27;3.03;;;2.27;;
12970;SDS011;6550;48.650;8.774;2024-03-02T04:43:55;2.33;;;2.13;;
12970;SDS011;6550;48.650;8.774;2024-03-02T04:46:22;2.67;;;2.13;;
12970;SDS011;6550;48.650;8.774;2024-03-02T04:48:51;2.50;;;2.30;;
12970;SDS011;6550;48.650;8.774;2024-03-02T04:51:22;2.67;;;2.30;;
12970;SDS011;6550;48.650;8.774;2024-03-02T04:53:49;6.50;;;2.20;;
12970;SDS011;6550;48.650;8.774;2024-03-02T04:56:16;5.00;;;2.58;;
12970;SDS011;6550;48.650;8.774;2024-03-02T04:58:58;2.17;;;1.93;;
12970;SDS011;6550;48.650;8.774;2024-03-02T05:01:24;3.43;;;2.40;;
12970;SDS011;6550;48.650;8.774;2024-03-02T05:03:51;2.80;;;2.30;;
12970;SDS011;6550;48.650;8.774;2024-03-02T05:06:18;2.20;;;2.00;;
12970;SDS011;6550;48.650;8.774;2024-03-02T05:08:47;2.60;;;2.40;;
12970;SDS011;6550;48.650;8.774;2024-03-02T05:11:16;4.40;;;2.40;;
12970;SDS011;6550;48.650;8.774;2024-03-02T05:13:57;3.27;;;2.43;;
12970;SDS011;6550;48.650;8.774;2024-03-02T05:16:26;2.10;;;1.90;;
12970;SDS011;6550;48.650;8.774;2024-03-02T05:18:53;3.13;;;2.33;;
12970;SDS011;6550;48.650;8.774;2024-03-02T05:21:22;2.80;;;2.30;;
12970;SDS011;6550;48.650;8.774;2024-03-02T05:23:52;4.50;;;2.03;;
12970;SDS011;6550;48.650;8.774;2024-03-02T05:26:20;2.20;;;2.00;;
12970;SDS011;6550;48.650;8.774;2024-03-02T05:28:47;2.57;;;2.33;;
12970;SDS011;6550;48.650;8.774;2024-03-02T05:31:15;2.43;;;2.23;;
12970;SDS011;6550;48.650;8.774;2024-03-02T05:33:44;2.77;;;2.30;;
12970;SDS011;6550;48.650;8.774;2024-03-02T05:36:11;2.60;;;2.20;;
12970;SDS011;6550;48.650;8.774;2024-03-02T05:38:42;2.13;;;1.93;;
12970;SDS011;6550;48.650;8.774;2024-03-02T05:41:09;2.33;;;2.13;;
12970;SDS011;6550;48.650;8.774;2024-03-02T05:43:38;2.40;;;2.20;;
12970;SDS011;6550;48.650;8.774;2024-03-02T05:46:10;4.00;;;2.10;;
12970;SDS011;6550;48.650;8.774;2024-03-02T05:48:38;2.27;;;2.07;;
12970;SDS011;6550;48.650;8.774;2024-03-02T05:51:07;2.50;;;2.10;;
12970;SDS011;6550;48.650;8.774;2024-03-02T05:53:34;2.65;;;2.45;;
12970;SDS011;6550;48.650;8.774;2024-03-02T05:56:01;2.50;;;2.13;;
12970;SDS011;6550;48.650;8.774;2024-03-02T05:58:31;2.07;;;1.87;;
12970;SDS011;6550;48.650;8.774;2024-03-02T06:01:09;2.60;;;2.20;;
12970;SDS011;6550;48.650;8.774;2024-03-02T06:03:36;2.63;;;2.43;;
12970;SDS011;6550;48.650;8.774;2024-03-02T06:06:03;2.67;;;2.47;;
12970;SDS011;6550;48.650;8.774;2024-03-02T06:08:32;4.20;;;2.13;;
12970;SDS011;6550;48.650;8.774;2024-03-02T06:11:00;3.00;;;2.00;;
12970;SDS011;6550;48.650;8.774;2024-03-02T06:13:27;2.13;;;2.03;;
12970;SDS011;6550;48.650;8.774;2024-03-02T06:15:53;5.22;;;2.50;;
12970;SDS011;6550;48.650;8.774;2024-03-02T06:18:22;2.37;;;2.17;;
12970;SDS011;6550;48.650;8.774;2024-03-02T06:20:51;2.60;;;1.97;;
12970;SDS011;6550;48.650;8.774;2024-03-02T06:23:18;2.53;;;2.33;;
12970;SDS011;6550;48.650;8.774;2024-03-02T06:25:45;2.33;;;2.10;;
12970;SDS011;6550;48.650;8.774;2024-03-02T06:28:14;2.47;;;2.20;;
12970;SDS011;6550;48.650;8.774;2024-03-02T06:30:41;2.53;;;2.33;;
12970;SDS011;6550;48.650;8.774;2024-03-02T06:33:09;2.50;;;2.30;;
12970;SDS011;6550;48.650;8.774;2024-03-02T06:35:36;2.80;;;2.47;;
12970;SDS011;6550;48.650;8.774;2024-03-02T06:38:03;2.30;;;2.10;;
12970;SDS011;6550;48.650;8.774;2024-03-02T06:40:30;2.97;;;2.67;;
12970;SDS011;6550;48.650;8.774;2024-03-02T06:42:56;3.20;;;2.40;;
12970;SDS011;6550;48.650;8.774;2024-03-02T06:45:23;2.97;;;2.23;;
12970;SDS011;6550;48.650;8.774;2024-03-02T06:47:56;3.93;;;2.10;;
12970;SDS011;6550;48.650;8.774;2024-03-02T06:50:24;3.25;;;2.47;;
12970;SDS011;6550;48.650;8.774;2024-03-02T06:52:50;3.37;;;2.10;;
12970;SDS011;6550;48.650;8.774;2024-03-02T06:55:19;2.60;;;2.40;;
12970;SDS011;6550;48.650;8.774;2024-03-02T06:57:47;2.37;;;2.17;;
12970;SDS011;6550;48.650;8.774;2024-03-02T07:00:14;2.40;;;2.00;;
12970;SDS011;6550;48.650;8.774;2024-03-02T07:02:41;2.30;;;2.10;;
12970;SDS011;6550;48.650;8.774;2024-03-02T07:05:08;2.60;;;2.40;;
12970;SDS011;6550;48.650;8.774;2024-03-02T07:07:35;2.73;;;2.30;;
12970;SDS011;6550;48.650;8.774;2024-03-02T07:10:03;2.20;;;2.00;;
12970;SDS011;6550;48.650;8.774;2024-03-02T07:12:31;2.83;;;2.53;;
12970;SDS011;6550;48.650;8.774;2024-03-02T07:14:58;3.17;;;2.58;;
12970;SDS011;6550;48.650;8.774;2024-03-02T07:17:31;7.47;;;2.53;;
12970;SDS011;6550;48.650;8.774;2024-03-02T07:19:58;2.80;;;1.87;;
12970;SDS011;6550;48.650;8.774;2024-03-02T07:22:27;2.50;;;2.17;;
12970;SDS011;6550;48.650;8.774;2024-03-02T07:24:54;2.80;;;2.60;;
12970;SDS011;6550;48.650;8.774;2024-03-02T07:27:21;2.50;;;2.30;;
12970;SDS011;6550;48.650;8.774;2024-03-02T07:29:48;3.90;;;2.60;;
12970;SDS011;6550;48.650;8.774;2024-03-02T07:32:15;3.90;;;2.37;;
12970;SDS011;6550;48.650;8.774;2024-03-02T07:34:42;2.20;;;2.00;;
12970;SDS011;6550;48.650;8.774;2024-03-02T07:37:09;2.97;;;2.23;;
12970;SDS011;6550;48.650;8.774;2024-03-02T07:39:38;3.33;;;2.37;;
12970;SDS011;6550;48.650;8.774;2024-03-02T07:42:07;2.40;;;2.20;;
12970;SDS011;6550;48.650;8.774;2024-03-02T07:44:38;3.53;;;2.67;;
12970;SDS011;6550;48.650;8.774;2024-03-02T07:47:07;2.85;;;2.30;;
12970;SDS011;6550;48.650;8.774;2024-03-02T07:49:34;6.00;;;2.60;;
12970;SDS011;6550;48.650;8.774;2024-03-02T07:52:06;5.80;;;2.87;;
12970;SDS011;6550;48.650;8.774;2024-03-02T07:54:35;3.43;;;3.13;;
12970;SDS011;6550;48.650;8.774;2024-03-02T07:57:02;5.77;;;3.57;;
12970;SDS011;6550;48.650;8.774;2024-03-02T07:59:29;4.47;;;3.50;;
12970;SDS011;6550;48.650;8.774;2024-03-02T08:01:56;7.23;;;3.63;;
12970;SDS011;6550;48.650;8.774;2024-03-02T08:04:25;4.73;;;3.40;;
12970;SDS011;6550;48.650;8.774;2024-03-02T08:06:52;4.70;;;3.83;;
12970;SDS011;6550;48.650;8.774;2024-03-02T08:09:21;4.70;;;4.10;;
12970;SDS011;6550;48.650;8.774;2024-03-02T08:11:47;5.30;;;3.63;;
12970;SDS011;6550;48.650;8.774;2024-03-02T08:14:14;6.20;;;3.57;;
12970;SDS011;6550;48.650;8.774;2024-03-02T08:16:43;4.67;;;4.03;;
12970;SDS011;6550;48.650;8.774;2024-03-02T08:19:11;5.33;;;4.30;;
12970;SDS011;6550;48.650;8.774;2024-03-02T08:21:40;6.73;;;4.70;;
12970;SDS011;6550;48.650;8.774;2024-03-02T08:24:08;6.00;;;4.97;;
12970;SDS011;6550;48.650;8.774;2024-03-02T08:26:35;8.10;;;4.87;;
12970;SDS011;6550;48.650;8.774;2024-03-02T08:29:02;6.50;;;5.53;;
12970;SDS011;6550;48.650;8.774;2024-03-02T08:31:31;6.37;;;5.13;;
12970;SDS011;6550;48.650;8.774;2024-03-02T08:34:00;7.70;;;5.30;;
12970;SDS011;6550;48.650;8.774;2024-03-02T08:36:30;6.63;;;5.80;;
12970;SDS011;6550;48.650;8.774;2024-03-02T08:38:59;7.47;;;6.30;;
12970;SDS011;6550;48.650;8.774;2024-03-02T08:41:29;6.43;;;5.50;;
12970;SDS011;6550;48.650;8.774;2024-03-02T08:43:56;6.47;;;5.65;;
12970;SDS011;6550;48.650;8.774;2024-03-02T08:46:23;7.13;;;5.53;;
12970;SDS011;6550;48.650;8.774;2024-03-02T08:48:52;6.57;;;5.70;;
12970;SDS011;6550;48.650;8.774;2024-03-02T08:51:19;6.40;;;5.80;;
12970;SDS011;6550;48.650;8.774;2024-03-02T08:53:46;6.70;;;5.87;;
12970;SDS011;6550;48.650;8.774;2024-03-02T08:56:18;8.73;;;5.30;;
12970;SDS011;6550;48.650;8.774;2024-03-02T08:58:46;6.33;;;5.37;;
12970;SDS011;6550;48.650;8.774;2024-03-02T09:01:13;6.97;;;5.47;;
12970;SDS011;6550;48.650;8.774;2024-03-02T09:03:41;6.37;;;5.30;;
12970;SDS011;6550;48.650;8.774;2024-03-02T09:06:13;6.03;;;4.60;;
12970;SDS011;6550;48.650;8.774;2024-03-02T09:08:40;6.50;;;5.40;;
12970;SDS011;6550;48.650;8.774;2024-03-02T09:11:07;9.17;;;5.47;;
12970;SDS011;6550;48.650;8.774;2024-03-02T09:13:34;6.10;;;5.50;;
12970;SDS011;6550;48.650;8.774;2024-03-02T09:16:03;8.20;;;5.90;;
12970;SDS011;6550;48.650;8.774;2024-03-02T09:18:33;7.80;;;4.70;;
12970;SDS011;6550;48.650;8.774;2024-03-02T09:21:00;6.00;;;5.40;;
12970;SDS011;6550;48.650;8.774;2024-03-02T09:23:27;6.60;;;5.43;;
12970;SDS011;6550;48.650;8.774;2024-03-02T09:25:54;5.63;;;4.97;;
12970;SDS011;6550;48.650;8.774;2024-03-02T09:28:24;6.47;;;4.80;;
12970;SDS011;6550;48.650;8.774;2024-03-02T09:30:50;5.50;;;5.00;;
12970;SDS011;6550;48.650;8.774;2024-03-02T09:33:17;4.97;;;4.47;;
12970;SDS011;6550;48.650;8.774;2024-03-02T09:35:44;6.50;;;4.87;;
12970;SDS011;6550;48.650;8.774;2024-03-02T09:38:14;5.43;;;4.70;;
12970;SDS011;6550;48.650;8.774;2024-03-02T09:40:41;5.13;;;4.67;;
12970;SDS011;6550;48.650;8.774;2024-03-02T09:43:09;5.33;;;4.83;;
12970;SDS011;6550;48.650;8.774;2024-03-02T09:45:36;5.17;;;4.67;;
12970;SDS011;6550;48.650;8.774;2024-03-02T09:48:04;5.00;;;4.50;;
12970;SDS011;6550;48.650;8.774;2024-03-02T09:50:33;5.27;;;4.63;;
12970;SDS011;6550;48.650;8.774;2024-03-02T09:53:02;7.00;;;4.60;;
12970;SDS011;6550;48.650;8.774;2024-03-02T09:55:30;8.20;;;4.43;;
12970;SDS011;6550;48.650;8.774;2024-03-02T09:57:56;5.40;;;4.87;;
12970;SDS011;6550;48.650;8.774;2024-03-02T10:00:28;5.23;;;4.10;;
12970;SDS011;6550;48.650;8.774;2024-03-02T10:02:55;6.70;;;4.33;;
12970;SDS011;6550;48.650;8.774;2024-03-02T10:05:25;4.30;;;3.80;;
12970;SDS011;6550;48.650;8.774;2024-03-02T10:08:01;4.17;;;3.77;;
12970;SDS011;6550;48.650;8.774;2024-03-02T10:10:37;4.13;;;3.73;;
12970;SDS011;6550;48.650;8.774;2024-03-02T10:13:10;4.77;;;4.30;;
12970;SDS011;6550;48.650;8.774;2024-03-02T10:15:38;4.20;;;3.50;;
12970;SDS011;6550;48.650;8.774;2024-03-02T10:18:11;4.10;;;3.47;;
12970;SDS011;6550;48.650;8.774;2024-03-02T10:20:39;4.10;;;3.70;;
12970;SDS011;6550;48.650;8.774;2024-03-02T10:23:15;5.37;;;3.87;;
12970;SDS011;6550;48.650;8.774;2024-03-02T10:25:44;3.97;;;3.67;;
12970;SDS011;6550;48.650;8.774;2024-03-02T10:28:23;3.95;;;3.63;;
12970;SDS011;6550;48.650;8.774;2024-03-02T10:30:50;5.70;;;3.00;;
12970;SDS011;6550;48.650;8.774;2024-03-02T10:33:19;3.50;;;3.00;;
12970;SDS011;6550;48.650;8.774;2024-03-02T10:35:47;3.70;;;3.23;;
12970;SDS011;6550;48.650;8.774;2024-03-02T10:38:16;3.63;;;2.90;;
12970;SDS011;6550;48.650;8.774;2024-03-02T10:40:47;3.77;;;3.00;;
12970;SDS011;6550;48.650;8.774;2024-03-02T10:43:16;3.47;;;3.17;;
12970;SDS011;6550;48.650;8.774;2024-03-02T10:45:47;3.70;;;3.07;;
12970;SDS011;6550;48.650;8.774;2024-03-02T10:48:17;4.10;;;3.07;;
12970;SDS011;6550;48.650;8.774;2024-03-02T10:50:47;3.70;;;3.25;;
12970;SDS011;6550;48.650;8.774;2024-03-02T10:53:17;3.30;;;2.97;;
12970;SDS011;6550;48.650;8.774;2024-03-02T10:55:44;3.10;;;2.80;;
12970;SDS011;6550;48.650;8.774;2024-03-02T10:58:17;2.93;;;2.63;;
12970;SDS011;6550;48.650;8.774;2024-03-02T11:00:45;3.00;;;2.70;;
12970;SDS011;6550;48.650;8.774;2024-03-02T11:03:14;2.60;;;2.33;;
12970;SDS011;6550;48.650;8.774;2024-03-02T11:05:44;3.07;;;2.50;;
12970;SDS011;6550;48.650;8.774;2024-03-02T11:08:13;2.63;;;2.30;;
12970;SDS011;6550;48.650;8.774;2024-03-02T11:10:48;2.33;;;2.17;;
12970;SDS011;6550;48.650;8.774;2024-03-02T11:13:22;3.55;;;2.45;;
12970;SDS011;6550;48.650;8.774;2024-03-02T11:15:59;2.27;;;2.07;;
12970;SDS011;6550;48.650;8.774;2024-03-02T11:18:32;3.40;;;1.90;;
12970;SDS011;6550;48.650;8.774;2024-03-02T11:21:02;2.20;;;2.00;;
12970;SDS011;6550;48.650;8.774;2024-03-02T11:23:33;2.43;;;2.23;;
12970;SDS011;6550;48.650;8.774;2024-03-02T11:28:46;2.30;;;2.10;;
12970;SDS011;6550;48.650;8.774;2024-03-02T11:31:13;2.60;;;1.97;;
12970;SDS011;6550;48.650;8.774;2024-03-02T11:33:45;2.87;;;2.00;;
12970;SDS011;6550;48.650;8.774;2024-03-02T11:36:12;3.07;;;2.20;;
12970;SDS011;6550;48.650;8.774;2024-03-02T11:38:39;2.07;;;1.87;;
12970;SDS011;6550;48.650;8.774;2024-03-02T11:41:15;1.87;;;1.77;;
12970;SDS011;6550;48.650;8.774;2024-03-02T11:43:44;1.90;;;1.70;;
12970;SDS011;6550;48.650;8.774;2024-03-02T11:46:11;1.80;;;1.70;;
12970;SDS011;6550;48.650;8.774;2024-03-02T11:48:41;2.43;;;1.83;;
12970;SDS011;6550;48.650;8.774;2024-03-02T11:51:11;1.87;;;1.50;;
12970;SDS011;6550;48.650;8.774;2024-03-02T11:53:43;1.37;;;1.27;;
12970;SDS011;6550;48.650;8.774;2024-03-02T11:56:12;1.90;;;1.70;;
12970;SDS011;6550;48.650;8.774;2024-03-02T11:58:40;2.30;;;1.47;;
12970;SDS011;6550;48.650;8.774;2024-03-02T12:01:08;1.63;;;1.40;;
12970;SDS011;6550;48.650;8.774;2024-03-02T12:03:37;2.33;;;1.20;;
12970;SDS011;6550;48.650;8.774;2024-03-02T12:06:04;1.50;;;1.13;;
12970;SDS011;6550;48.650;8.774;2024-03-02T12:08:34;1.80;;;1.07;;
12970;SDS011;6550;48.650;8.774;2024-03-02T12:11:04;1.53;;;1.20;;
12970;SDS011;6550;48.650;8.774;2024-03-02T12:13:32;1.30;;;1.20;;
12970;SDS011;6550;48.650;8.774;2024-03-02T12:16:01;1.40;;;1.30;;
12970;SDS011;6550;48.650;8.774;2024-03-02T12:18:31;2.97;;;1.30;;
12970;SDS011;6550;48.650;8.774;2024-03-02T12:20:58;1.50;;;1.40;;
12970;SDS011;6550;48.650;8.774;2024-03-02T12:23:29;1.87;;;1.13;;
12970;SDS011;6550;48.650;8.774;2024-03-02T12:25:56;1.50;;;1.40;;
12970;SDS011;6550;48.650;8.774;2024-03-02T12:28:25;1.30;;;1.20;;
12970;SDS011;6550;48.650;8.774;2024-03-02T12:30:52;1.40;;;1.30;;
12970;SDS011;6550;48.650;8.774;2024-03-02T12:33:24;1.20;;;1.10;;
12970;SDS011;6550;48.650;8.774;2024-03-02T12:35:51;2.47;;;1.42;;
12970;SDS011;6550;48.650;8.774;2024-03-02T12:38:18;1.50;;;1.40;;
12970;SDS011;6550;48.650;8.774;2024-03-02T12:40:47;1.33;;;1.23;;
12970;SDS011;6550;48.650;8.774;2024-03-02T12:43:18;1.20;;;1.10;;
12970;SDS011;6550;48.650;8.774;2024-03-02T12:45:45;0.90;;;0.90;;
12970;SDS011;6550;48.650;8.774;2024-03-02T12:48:11;1.30;;;1.20;;
12970;SDS011;6550;48.650;8.774;2024-03-02T12:50:40;2.23;;;1.20;;
12970;SDS011;6550;48.650;8.774;2024-03-02T12:53:13;1.93;;;1.23;;
12970;SDS011;6550;48.650;8.774;2024-03-02T12:55:43;1.57;;;1.40;;
12970;SDS011;6550;48.650;8.774;2024-03-02T12:58:20;2.07;;;1.57;;
12970;SDS011;6550;48.650;8.774;2024-03-02T13:00:48;1.47;;;1.30;;
12970;SDS011;6550;48.650;8.774;2024-03-02T13:03:17;1.50;;;1.40;;
12970;SDS011;6550;48.650;8.774;2024-03-02T13:05:51;2.50;;;1.70;;
12970;SDS011;6550;48.650;8.774;2024-03-02T13:08:19;1.50;;;1.40;;
12970;SDS011;6550;48.650;8.774;2024-03-02T13:10:46;1.67;;;1.57;;
12970;SDS011;6550;48.650;8.774;2024-03-02T13:13:15;1.57;;;1.47;;
12970;SDS011;6550;48.650;8.774;2024-03-02T13:15:42;1.98;;;1.63;;
12970;SDS011;6550;48.650;8.774;2024-03-02T13:18:11;2.13;;;1.93;;
12970;SDS011;6550;48.650;8.774;2024-03-02T13:20:43;1.50;;;1.40;;
12970;SDS011;6550;48.650;8.774;2024-03-02T13:23:12;1.93;;;1.73;;
12970;SDS011;6550;48.650;8.774;2024-03-02T13:25:41;1.70;;;1.53;;
12970;SDS011;6550;48.650;8.774;2024-03-02T13:28:13;1.53;;;1.43;;
12970;SDS011;6550;48.650;8.774;2024-03-02T13:30:43;1.83;;;1.73;;
12970;SDS011;6550;48.650;8.774;2024-03-02T13:33:10;2.10;;;1.70;;
12970;SDS011;6550;48.650;8.774;2024-03-02T13:35:37;2.20;;;1.50;;
12970;SDS011;6550;48.650;8.774;2024-03-02T13:38:04;2.00;;;1.50;;
12970;SDS011;6550;48.650;8.774;2024-03-02T13:40:31;1.73;;;1.63;;
12970;SDS011;6550;48.650;8.774;2024-03-02T13:43:02;1.83;;;1.53;;
12970;SDS011;6550;48.650;8.774;2024-03-02T13:45:29;1.67;;;1.50;;
12970;SDS011;6550;48.650;8.774;2024-03-02T13:47:56;2.00;;;1.67;;
12970;SDS011;6550;48.650;8.774;2024-03-02T13:50:26;2.03;;;1.60;;
12970;SDS011;6550;48.650;8.774;2024-03-02T13:52:52;1.70;;;1.60;;
12970;SDS011;6550;48.650;8.774;2024-03-02T13:55:20;1.30;;;1.20;;
12970;SDS011;6550;48.650;8.774;2024-03-02T13:57:47;3.17;;;1.70;;
12970;SDS011;6550;48.650;8.774;2024-03-02T14:00:19;1.30;;;1.20;;
12970;SDS011;6550;48.650;8.774;2024-03-02T14:02:46;1.37;;;1.27;;
12970;SDS011;6550;48.650;8.774;2024-03-02T14:05:15;1.13;;;1.03;;
12970;SDS011;6550;48.650;8.774;2024-03-02T14:07:45;1.33;;;1.17;;
12970;SDS011;6550;48.650;8.774;2024-03-02T14:10:14;1.97;;;1.43;;
12970;SDS011;6550;48.650;8.774;2024-03-02T14:12:44;1.50;;;1.40;;
12970;SDS011;6550;48.650;8.774;2024-03-02T14:15:11;1.60;;;1.33;;
12970;SDS011;6550;48.650;8.774;2024-03-02T14:17:38;2.10;;;1.40;;
12970;SDS011;6550;48.650;8.774;2024-03-02T14:20:05;1.13;;;1.03;;
12970;SDS011;6550;48.650;8.774;2024-03-02T14:22:36;1.40;;;1.30;;
12970;SDS011;6550;48.650;8.774;2024-03-02T14:25:08;1.30;;;1.20;;
12970;SDS011;6550;48.650;8.774;2024-03-02T14:27:35;1.73;;;1.20;;
12970;SDS011;6550;48.650;8.774;2024-03-02T14:30:22;1.40;;;1.30;;
12970;SDS011;6550;48.650;8.774;2024-03-02T14:32:52;1.63;;;1.52;;
12970;SDS011;6550;48.650;8.774;2024-03-02T14:35:18;1.97;;;1.43;;
12970;SDS011;6550;48.650;8.774;2024-03-02T14:37:46;6.60;;;1.77;;
12970;SDS011;6550;48.650;8.774;2024-03-02T14:40:13;1.73;;;1.60;;
12970;SDS011;6550;48.650;8.774;2024-03-02T14:42:40;2.03;;;1.80;;
12970;SDS011;6550;48.650;8.774;2024-03-02T14:45:15;1.90;;;1.73;;
12970;SDS011;6550;48.650;8.774;2024-03-02T14:47:42;1.97;;;1.80;;
12970;SDS011;6550;48.650;8.774;2024-03-02T14:50:09;2.00;;;1.80;;
12970;SDS011;6550;48.650;8.774;2024-03-02T14:52:38;2.10;;;1.90;;
12970;SDS011;6550;48.650;8.774;2024-03-02T14:55:08;1.90;;;1.50;;
12970;SDS011;6550;48.650;8.774;2024-03-02T14:57:37;2.23;;;1.63;;
12970;SDS011;6550;48.650;8.774;2024-03-02T15:00:06;2.00;;;1.80;;
12970;SDS011;6550;48.650;8.774;2024-03-02T15:02:37;1.53;;;1.43;;
12970;SDS011;6550;48.650;8.774;2024-03-02T15:05:04;1.60;;;1.50;;
12970;SDS011;6550;48.650;8.774;2024-03-02T15:07:34;1.60;;;1.50;;
12970;SDS011;6550;48.650;8.774;2024-03-02T15:10:03;1.57;;;1.47;;
12970;SDS011;6550;48.650;8.774;2024-03-02T15:12:30;1.50;;;1.40;;